createdAt,value
2023-02-12T00:02:18.999Z,96763.91
2023-02-12T00:05:05.215Z,96755.34
2023-02-12T00:07:51.232Z,96748.25
2023-02-12T00:10:41.564Z,96751.41
2023-02-12T00:13:31.335Z,96749.09
2023-02-12T00:16:20.632Z,96731.06
2023-02-12T00:19:06.555Z,96752.25
2023-02-12T00:21:52.434Z,96750.69
2023-02-12T00:24:38.328Z,96759.25
2023-02-12T00:27:24.894Z,96755.97
2023-02-12T00:30:11.383Z,96755.13
2023-02-12T00:32:57.367Z,96751.88
2023-02-12T00:35:43.197Z,96734.03
2023-02-12T00:38:29.399Z,96728.03
2023-02-12T00:41:15.274Z,96741.63
2023-02-12T00:44:01.130Z,96738.03
2023-02-12T00:46:47.316Z,96747.13
2023-02-12T00:49:35.645Z,96738.69
2023-02-12T00:52:21.749Z,96749.88
2023-02-12T00:55:09.456Z,96753.16
2023-02-12T00:57:55.329Z,96735.50
2023-02-12T01:00:41.300Z,96723.66
2023-02-12T01:03:27.235Z,96735.28
2023-02-12T01:06:13.090Z,96730.34
2023-02-12T01:08:58.803Z,96727.56
2023-02-12T01:11:44.605Z,96716.38
2023-02-12T01:14:30.374Z,96713.63
2023-02-12T01:17:16.260Z,96718.47
2023-02-12T01:20:05.917Z,96698.28
2023-02-12T01:22:52.605Z,96709.44
2023-02-12T01:25:38.974Z,96685.41
2023-02-12T01:28:24.904Z,96706.59
2023-02-12T01:31:17.247Z,96689.59
2023-02-12T01:34:03.002Z,96699.50
2023-02-12T01:36:49.097Z,96702.16
2023-02-12T01:39:35.960Z,96688.44
2023-02-12T01:42:22.089Z,96683.84
2023-02-12T01:45:14.090Z,96697.25
2023-02-12T01:48:00.565Z,96686.78
2023-02-12T01:50:48.894Z,96686.56
2023-02-12T01:53:37.550Z,96671.69
2023-02-12T01:56:24.590Z,96665.97
2023-02-12T01:59:10.855Z,96679.97
2023-02-12T02:01:56.773Z,96677.56
2023-02-12T02:04:54.914Z,96679.94
2023-02-12T02:07:42.218Z,96675.72
2023-02-12T02:10:30.116Z,96679.09
2023-02-12T02:13:34.761Z,96678.81
2023-02-12T02:16:26.421Z,96677.47
2023-02-12T02:19:30.869Z,96679.94
2023-02-12T02:22:28.477Z,96673.91
2023-02-12T02:25:51.646Z,96669.78
2023-02-12T02:29:02.275Z,96670.75
2023-02-12T02:31:54.564Z,96684.81
2023-02-12T02:35:07.629Z,96655.28
2023-02-12T02:38:15.000Z,96648.22
2023-02-12T02:41:07.007Z,96641.31
2023-02-12T02:43:53.641Z,96656.84
2023-02-12T02:46:46.360Z,96661.16
2023-02-12T02:49:33.754Z,96656.53
2023-02-12T02:52:25.167Z,96645.94
2023-02-12T02:55:13.465Z,96636.41
2023-02-12T02:58:03.605Z,96626.19
2023-02-12T03:00:59.380Z,96639.19
2023-02-12T03:03:51.111Z,96645.47
2023-02-12T03:06:57.832Z,96650.28
2023-02-12T03:09:50.340Z,96636.69
2023-02-12T03:12:47.581Z,96642.81
2023-02-12T03:15:58.625Z,96616.03
2023-02-12T03:19:06.643Z,96625.13
2023-02-12T03:21:58.669Z,96642.16
2023-02-12T03:24:48.824Z,96628.94
2023-02-12T03:27:38.816Z,96643.72
2023-02-12T03:30:40.460Z,96613.75
2023-02-12T03:33:38.073Z,96627.97
2023-02-12T03:36:53.180Z,96622.19
2023-02-12T03:39:43.828Z,96629.91
2023-02-12T03:42:38.645Z,96622.66
2023-02-12T03:45:55.200Z,96627.94
2023-02-12T03:48:56.516Z,96615.22
2023-02-12T03:51:45.221Z,96618.06
2023-02-12T03:54:31.015Z,96617.25
2023-02-12T03:57:20.490Z,96611.94
2023-02-12T04:00:11.981Z,96609.44
2023-02-12T04:03:01.028Z,96602.56
2023-02-12T04:05:46.940Z,96605.94
2023-02-12T04:08:33.241Z,96599.63
2023-02-12T04:11:45.187Z,96620.22
2023-02-12T04:14:46.979Z,96615.47
2023-02-12T04:17:47.364Z,96619.59
2023-02-12T04:20:54.298Z,96620.34
2023-02-12T04:23:48.952Z,96614.09
2023-02-12T04:26:40.068Z,96616.75
2023-02-12T04:29:44.459Z,96619.59
2023-02-12T04:32:35.342Z,96614.44
2023-02-12T04:35:35.941Z,96621.00
2023-02-12T04:38:25.540Z,96603.91
2023-02-12T04:41:11.491Z,96593.59
2023-02-12T04:43:57.213Z,96619.00
2023-02-12T04:46:42.988Z,96622.47
2023-02-12T04:49:28.912Z,96603.56
2023-02-12T04:52:14.591Z,96627.84
2023-02-12T04:55:00.520Z,96623.31
2023-02-12T04:57:46.345Z,96631.25
2023-02-12T05:00:32.830Z,96613.31
2023-02-12T05:03:18.412Z,96626.06
2023-02-12T05:06:06.017Z,96627.00
2023-02-12T05:08:55.280Z,96624.44
2023-02-12T05:11:41.367Z,96658.72
2023-02-12T05:14:27.336Z,96635.63
2023-02-12T05:17:13.217Z,96657.75
2023-02-12T05:19:59.153Z,96641.91
2023-02-12T05:22:44.963Z,96649.63
2023-02-12T05:25:32.094Z,96622.97
2023-02-12T05:28:18.235Z,96649.44
2023-02-12T05:31:06.506Z,96633.75
2023-02-12T05:33:52.415Z,96661.09
2023-02-12T05:36:38.329Z,96648.94
2023-02-12T05:39:24.135Z,96672.84
2023-02-12T05:42:10.002Z,96673.88
2023-02-12T05:44:55.863Z,96676.66
2023-02-12T05:47:41.615Z,96681.59
2023-02-12T05:50:27.522Z,96661.66
2023-02-12T05:53:18.861Z,96674.22
2023-02-12T05:56:19.462Z,96685.75
2023-02-12T05:59:14.189Z,96691.03
2023-02-12T06:02:00.171Z,96706.22
2023-02-12T06:04:48.526Z,96687.66
2023-02-12T06:07:34.497Z,96691.47
2023-02-12T06:10:20.463Z,96727.56
2023-02-12T06:13:06.714Z,96715.19
2023-02-12T06:15:52.549Z,96716.47
2023-02-12T06:18:38.362Z,96706.16
2023-02-12T06:21:27.838Z,96732.44
2023-02-12T06:24:15.160Z,96741.06
2023-02-12T06:27:01.048Z,96734.84
2023-02-12T06:29:46.908Z,96741.91
2023-02-12T06:32:32.620Z,96720.47
2023-02-12T06:35:18.322Z,96744.34
2023-02-12T06:38:04.879Z,96749.50
2023-02-12T06:40:50.886Z,96738.81
2023-02-12T06:43:37.233Z,96750.78
2023-02-12T06:46:23.203Z,96764.72
2023-02-12T06:49:12.246Z,96765.56
2023-02-12T06:51:58.003Z,96751.63
2023-02-12T06:54:43.944Z,96746.16
2023-02-12T06:57:30.146Z,96734.63
2023-02-12T07:00:16.563Z,96746.94
2023-02-12T07:03:02.702Z,96736.16
2023-02-12T07:05:48.424Z,96733.41
2023-02-12T07:08:34.319Z,96713.25
2023-02-12T07:11:24.200Z,96729.91
2023-02-12T07:14:19.200Z,96724.63
2023-02-12T07:17:05.603Z,96739.50
2023-02-12T07:19:51.294Z,96699.88
2023-02-12T07:22:37.421Z,96741.25
2023-02-12T07:25:23.423Z,96750.34
2023-02-12T07:28:09.385Z,96746.94
2023-02-12T07:30:55.198Z,96717.47
2023-02-12T07:33:41.516Z,96728.97
2023-02-12T07:36:30.868Z,96757.97
2023-02-12T07:39:16.993Z,96756.66
2023-02-12T07:42:02.797Z,96749.81
2023-02-12T07:44:48.890Z,96751.69
2023-02-12T07:47:38.548Z,96740.88
2023-02-12T07:50:24.467Z,96747.66
2023-02-12T07:53:10.193Z,96737.28
2023-02-12T07:55:56.482Z,96737.34
2023-02-12T07:58:45.089Z,96739.53
2023-02-12T08:01:39.100Z,96710.53
2023-02-12T08:04:25.718Z,96710.88
2023-02-12T08:07:11.825Z,96717.28
2023-02-12T08:09:57.799Z,96724.28
2023-02-12T08:12:43.760Z,96715.25
2023-02-12T08:15:29.584Z,96696.22
2023-02-12T08:18:15.267Z,96713.66
2023-02-12T08:21:04.917Z,96718.50
2023-02-12T08:23:52.034Z,96706.16
2023-02-12T08:26:39.184Z,96709.53
2023-02-12T08:29:30.411Z,96710.94
2023-02-12T08:32:17.253Z,96672.28
2023-02-12T08:35:03.255Z,96693.44
2023-02-12T08:37:49.030Z,96723.97
2023-02-12T08:40:35.035Z,96717.47
2023-02-12T08:43:20.839Z,96704.75
2023-02-12T08:46:35.060Z,96716.78
2023-02-12T08:49:23.400Z,96712.53
2023-02-12T08:52:09.330Z,96725.75
2023-02-12T08:54:55.045Z,96731.31
2023-02-12T08:57:42.454Z,96723.34
2023-02-12T09:00:28.177Z,96719.22
2023-02-12T09:03:13.873Z,96736.97
2023-02-12T09:06:03.434Z,96749.06
2023-02-12T09:08:49.618Z,96738.94
2023-02-12T09:11:35.776Z,96743.81
2023-02-12T09:14:25.320Z,96726.91
2023-02-12T09:17:11.345Z,96734.69
2023-02-12T09:19:57.669Z,96744.19
2023-02-12T09:22:43.899Z,96724.91
2023-02-12T09:25:29.859Z,96730.38
2023-02-12T09:28:15.663Z,96714.19
2023-02-12T09:31:08.745Z,96733.63
2023-02-12T09:33:57.645Z,96744.25
2023-02-12T09:36:43.552Z,96773.81
2023-02-12T09:39:30.862Z,96757.53
2023-02-12T09:42:45.443Z,96765.72
2023-02-12T09:45:35.718Z,96769.28
2023-02-12T09:48:27.818Z,96755.19
2023-02-12T09:51:14.140Z,96788.25
2023-02-12T09:54:18.739Z,96774.97
2023-02-12T09:57:12.218Z,96785.63
2023-02-12T10:00:24.903Z,96778.03
2023-02-12T10:03:16.818Z,96772.72
2023-02-12T10:06:08.514Z,96781.06
2023-02-12T10:09:00.555Z,96784.75
2023-02-12T10:12:22.737Z,96794.91
2023-02-12T10:15:33.483Z,96791.88
2023-02-12T10:18:28.722Z,96784.88
2023-02-12T10:21:23.519Z,96793.28
2023-02-12T10:24:44.381Z,96786.25
2023-02-12T10:27:48.701Z,96816.72
2023-02-12T10:30:52.604Z,96807.00
2023-02-12T10:33:42.810Z,96803.22
2023-02-12T10:36:45.031Z,96774.38
2023-02-12T10:39:43.873Z,96785.00
2023-02-12T10:42:36.402Z,96792.41
2023-02-12T10:45:27.053Z,96797.19
2023-02-12T10:48:35.550Z,96804.13
2023-02-12T10:51:38.353Z,96771.34
2023-02-12T10:54:33.342Z,96794.69
2023-02-12T10:57:22.564Z,96762.00
2023-02-12T11:00:35.780Z,96795.63
2023-02-12T11:03:22.254Z,96788.78
2023-02-12T11:06:29.515Z,96797.91
2023-02-12T11:09:28.460Z,96792.44
2023-02-12T11:12:26.749Z,96797.94
2023-02-12T11:15:20.185Z,96814.88
2023-02-12T11:18:08.574Z,96801.53
2023-02-12T11:20:59.106Z,96797.75
2023-02-12T11:23:46.526Z,96805.88
2023-02-12T11:26:33.634Z,96802.88
2023-02-12T11:29:24.240Z,96804.19
2023-02-12T11:32:18.885Z,96803.81
2023-02-12T11:35:25.091Z,96803.41
2023-02-12T11:38:24.550Z,96794.28
2023-02-12T11:41:36.336Z,96806.50
2023-02-12T11:44:34.925Z,96811.75
2023-02-12T11:47:29.228Z,96808.50
2023-02-12T11:50:26.660Z,96806.69
2023-02-12T11:53:22.341Z,96821.28
2023-02-12T11:56:10.852Z,96818.22
2023-02-12T11:59:11.797Z,96820.59
2023-02-12T12:02:02.301Z,96816.06
2023-02-12T12:04:50.356Z,96813.38
2023-02-12T12:07:37.206Z,96835.28
2023-02-12T12:10:34.611Z,96821.97
2023-02-12T12:13:26.143Z,96817.34
2023-02-12T12:16:38.376Z,96822.47
2023-02-12T12:19:47.329Z,96825.13
2023-02-12T12:22:39.868Z,96834.94
2023-02-12T12:25:46.477Z,96832.59
2023-02-12T12:28:45.941Z,96835.97
2023-02-12T12:31:41.067Z,96839.34
2023-02-12T12:34:28.075Z,96818.91
2023-02-12T12:37:29.445Z,96835.78
2023-02-12T12:40:30.452Z,96827.34
2023-02-12T12:43:55.129Z,96846.22
2023-02-12T12:46:48.099Z,96853.97
2023-02-12T12:49:49.651Z,96856.09
2023-02-12T12:52:44.943Z,96864.75
2023-02-12T12:56:07.834Z,96855.34
2023-02-12T12:59:06.013Z,96855.72
2023-02-12T13:01:54.740Z,96856.19
2023-02-12T13:04:56.939Z,96846.22
2023-02-12T13:08:18.422Z,96850.81
2023-02-12T13:11:23.357Z,96847.19
2023-02-12T13:14:40.394Z,96847.31
2023-02-12T13:17:32.141Z,96833.63
2023-02-12T13:20:34.959Z,96841.94
2023-02-12T13:23:58.466Z,96857.09
2023-02-12T13:26:47.471Z,96844.78
2023-02-12T13:29:37.455Z,96853.22
2023-02-12T13:32:29.861Z,96853.06
2023-02-12T13:35:26.103Z,96832.28
2023-02-12T13:38:19.409Z,96857.69
2023-02-12T13:41:07.807Z,96877.28
2023-02-12T13:44:32.634Z,96859.97
2023-02-12T13:47:44.554Z,96855.19
2023-02-12T13:50:36.566Z,96865.97
2023-02-12T13:53:37.662Z,96869.16
2023-02-12T13:56:34.675Z,96867.03
2023-02-12T13:59:35.637Z,96891.63
2023-02-12T14:02:33.937Z,96881.53
2023-02-12T14:05:30.990Z,96878.13
2023-02-12T14:08:36.268Z,96887.47
2023-02-12T14:11:24.702Z,96886.09
2023-02-12T14:14:10.827Z,96874.16
2023-02-12T14:16:57.366Z,96873.72
2023-02-12T14:19:55.435Z,96898.09
2023-02-12T14:22:44.168Z,96900.13
2023-02-12T14:25:37.309Z,96884.66
2023-02-12T14:28:44.676Z,96886.03
2023-02-12T14:31:33.745Z,96905.28
2023-02-12T14:34:22.644Z,96900.03
2023-02-12T14:37:12.551Z,96903.16
2023-02-12T14:40:34.077Z,96906.25
2023-02-12T14:43:54.877Z,96917.94
2023-02-12T14:47:13.156Z,96923.69
2023-02-12T14:50:08.934Z,96913.84
2023-02-12T14:52:59.835Z,96906.13
2023-02-12T14:55:46.975Z,96917.59
2023-02-12T14:58:33.213Z,96912.88
2023-02-12T15:01:31.105Z,96911.56
2023-02-12T15:04:28.477Z,96921.25
2023-02-12T15:07:17.708Z,96932.72
2023-02-12T15:10:10.717Z,96911.09
2023-02-12T15:13:30.199Z,96919.06
2023-02-12T15:16:22.881Z,96930.16
2023-02-12T15:19:27.049Z,96938.03
2023-02-12T15:22:18.207Z,96950.34
2023-02-12T15:25:24.649Z,96948.19
2023-02-12T15:28:20.096Z,96951.94
2023-02-12T15:31:10.642Z,96937.34
2023-02-12T15:33:58.739Z,96952.53
2023-02-12T15:36:45.858Z,96967.75
2023-02-12T15:39:43.762Z,96960.06
2023-02-12T15:42:40.579Z,96979.50
2023-02-12T15:45:28.810Z,96975.63
2023-02-12T15:48:19.560Z,96992.50
2023-02-12T15:51:10.189Z,96978.09
2023-02-12T15:53:57.485Z,96994.84
2023-02-12T15:56:43.443Z,96997.00
2023-02-12T15:59:29.474Z,97004.84
2023-02-12T16:02:22.038Z,96991.47
2023-02-12T16:05:08.130Z,97001.22
2023-02-12T16:07:54.506Z,97009.44
2023-02-12T16:10:44.064Z,97016.56
2023-02-12T16:13:33.574Z,97019.84
2023-02-12T16:16:22.705Z,97026.22
2023-02-12T16:19:20.687Z,97044.84
2023-02-12T16:22:15.327Z,97036.75
2023-02-12T16:25:01.732Z,97019.75
2023-02-12T16:28:18.456Z,97047.03
2023-02-12T16:31:14.307Z,97042.22
2023-02-12T16:34:01.094Z,97054.03
2023-02-12T16:36:47.275Z,97061.53
2023-02-12T16:39:55.562Z,97061.41
2023-02-12T16:42:47.676Z,97048.25
2023-02-12T16:45:35.680Z,97069.72
2023-02-12T16:48:25.264Z,97068.56
2023-02-12T16:51:28.364Z,97075.56
2023-02-12T16:54:27.902Z,97082.69
2023-02-12T16:57:13.784Z,97073.38
2023-02-12T16:59:59.628Z,97089.81
2023-02-12T17:02:47.154Z,97088.22
2023-02-12T17:05:33.059Z,97094.28
2023-02-12T17:08:21.533Z,97090.91
2023-02-12T17:11:09.844Z,97083.66
2023-02-12T17:13:57.882Z,97097.03
2023-02-12T17:16:44.722Z,97096.69
2023-02-12T17:19:30.597Z,97104.31
2023-02-12T17:22:25.026Z,97109.63
2023-02-12T17:25:12.246Z,97119.03
2023-02-12T17:27:58.740Z,97109.97
2023-02-12T17:30:44.950Z,97104.91
2023-02-12T17:33:30.911Z,97119.03
2023-02-12T17:36:16.734Z,97112.41
2023-02-12T17:39:05.020Z,97116.63
2023-02-12T17:41:51.860Z,97121.34
2023-02-12T17:44:37.685Z,97120.97
2023-02-12T17:47:23.818Z,97133.19
2023-02-12T17:50:14.775Z,97134.00
2023-02-12T17:53:00.660Z,97125.56
2023-02-12T17:55:46.625Z,97142.59
2023-02-12T17:58:32.506Z,97152.13
2023-02-12T18:01:21.001Z,97136.78
2023-02-12T18:04:07.160Z,97147.53
2023-02-12T18:06:53.193Z,97149.34
2023-02-12T18:09:39.649Z,97148.13
2023-02-12T18:12:25.751Z,97159.38
2023-02-12T18:15:11.564Z,97149.22
2023-02-12T18:17:57.502Z,97153.06
2023-02-12T18:20:44.143Z,97148.50
2023-02-12T18:23:30.159Z,97149.56
2023-02-12T18:26:18.145Z,97164.63
2023-02-12T18:29:04.554Z,97157.56
2023-02-12T18:31:51.522Z,97156.38
2023-02-12T18:34:37.456Z,97165.38
2023-02-12T18:37:23.662Z,97155.81
2023-02-12T18:40:10.758Z,97170.59
2023-02-12T18:42:56.983Z,97161.56
2023-02-12T18:45:43.005Z,97165.69
2023-02-12T18:48:29.242Z,97167.63
2023-02-12T18:51:23.868Z,97145.06
2023-02-12T18:54:13.642Z,97153.25
2023-02-12T18:56:59.666Z,97159.75
2023-02-12T18:59:45.901Z,97163.16
2023-02-12T19:02:31.944Z,97167.41
2023-02-12T19:05:17.846Z,97171.34
2023-02-12T19:08:03.883Z,97179.31
2023-02-12T19:10:49.948Z,97175.94
2023-02-12T19:13:36.167Z,97189.22
2023-02-12T19:16:23.808Z,97189.72
2023-02-12T19:19:09.670Z,97188.25
2023-02-12T19:21:55.794Z,97197.41
2023-02-12T19:24:47.021Z,97203.34
2023-02-12T19:27:33.572Z,97194.53
2023-02-12T19:30:20.023Z,97210.81
2023-02-12T19:33:06.490Z,97203.69
2023-02-12T19:35:52.818Z,97213.84
2023-02-12T19:38:39.056Z,97206.22
2023-02-12T19:41:27.228Z,97214.66
2023-02-12T19:44:17.994Z,97223.72
2023-02-12T19:47:04.944Z,97231.81
2023-02-12T19:49:50.950Z,97222.63
2023-02-12T19:52:37.244Z,97222.13
2023-02-12T19:55:23.365Z,97222.03
2023-02-12T19:58:09.520Z,97217.94
2023-02-12T20:00:55.826Z,97231.69
2023-02-12T20:03:42.477Z,97226.75
2023-02-12T20:06:31.944Z,97223.25
2023-02-12T20:09:19.204Z,97218.16
2023-02-12T20:12:05.616Z,97237.34
2023-02-12T20:14:51.404Z,97232.59
2023-02-12T20:17:37.350Z,97244.94
2023-02-12T20:20:23.068Z,97230.41
2023-02-12T20:23:08.928Z,97249.19
2023-02-12T20:25:54.830Z,97266.41
2023-02-12T20:28:44.893Z,97259.41
2023-02-12T20:31:33.958Z,97269.28
2023-02-12T20:34:20.788Z,97260.13
2023-02-12T20:37:08.043Z,97249.00
2023-02-12T20:39:54.596Z,97259.75
2023-02-12T20:42:41.068Z,97266.34
2023-02-12T20:45:27.277Z,97257.00
2023-02-12T20:48:13.336Z,97282.16
2023-02-12T20:51:06.855Z,97262.66
2023-02-12T20:53:55.369Z,97280.69
2023-02-12T20:56:41.240Z,97285.88
2023-02-12T20:59:27.143Z,97290.66
2023-02-12T21:02:13.032Z,97284.97
2023-02-12T21:04:59.318Z,97298.63
2023-02-12T21:07:46.175Z,97299.81
2023-02-12T21:10:32.923Z,97301.88
2023-02-12T21:13:19.090Z,97278.75
2023-02-12T21:16:10.641Z,97292.31
2023-02-12T21:18:56.846Z,97291.00
2023-02-12T21:21:45.335Z,97283.09
2023-02-12T21:24:31.339Z,97296.56
2023-02-12T21:27:17.124Z,97297.41
2023-02-12T21:30:03.225Z,97293.47
2023-02-12T21:32:49.789Z,97292.75
2023-02-12T21:35:36.843Z,97302.19
2023-02-12T21:38:22.732Z,97308.38
2023-02-12T21:41:13.071Z,97290.78
2023-02-12T21:44:01.201Z,97311.28
2023-02-12T21:46:47.188Z,97307.66
2023-02-12T21:49:33.396Z,97319.31
2023-02-12T21:52:19.149Z,97316.78
2023-02-12T21:55:05.201Z,97302.03
2023-02-12T21:57:51.375Z,97308.81
2023-02-12T22:00:37.259Z,97317.00
2023-02-12T22:03:23.027Z,97317.22
2023-02-12T22:06:09.232Z,97314.56
2023-02-12T22:09:00.206Z,97312.13
2023-02-12T22:11:46.173Z,97314.66
2023-02-12T22:14:35.164Z,97320.22
2023-02-12T22:17:21.963Z,97321.91
2023-02-12T22:20:08.975Z,97320.22
2023-02-12T22:22:55.116Z,97332.19
2023-02-12T22:25:41.042Z,97326.38
2023-02-12T22:28:27.289Z,97323.63
2023-02-12T22:31:19.617Z,97325.13
2023-02-12T22:34:10.224Z,97326.38
2023-02-12T22:36:56.436Z,97305.41
2023-02-12T22:39:42.241Z,97319.06
2023-02-12T22:42:28.147Z,97317.47
2023-02-12T22:45:14.186Z,97335.06
2023-02-12T22:48:00.022Z,97314.84
2023-02-12T22:50:45.799Z,97326.16
2023-02-12T22:53:31.537Z,97309.41
2023-02-12T22:56:17.885Z,97334.75
2023-02-12T22:59:03.805Z,97328.72
2023-02-12T23:01:49.592Z,97329.97
2023-02-12T23:04:36.634Z,97340.78
2023-02-12T23:07:22.670Z,97338.47
2023-02-12T23:10:08.805Z,97345.34
2023-02-12T23:12:54.918Z,97336.69
2023-02-12T23:15:40.698Z,97336.56
2023-02-12T23:18:26.480Z,97338.13
2023-02-12T23:21:12.447Z,97341.66
2023-02-12T23:24:01.521Z,97336.34
2023-02-12T23:26:47.495Z,97338.13
2023-02-12T23:29:34.279Z,97344.19
2023-02-12T23:32:20.277Z,97345.88
2023-02-12T23:35:06.346Z,97334.88
2023-02-12T23:37:52.658Z,97339.97
2023-02-12T23:40:39.223Z,97345.69
2023-02-12T23:43:25.042Z,97332.09
2023-02-12T23:46:11.178Z,97345.56
2023-02-12T23:48:57.305Z,97343.88
2023-02-12T23:51:43.125Z,97337.84
2023-02-12T23:54:29.095Z,97332.63
2023-02-12T23:57:14.853Z,97352.78
